createdAt,value
2018-06-21T00:01:45.032Z,88.50
2018-06-21T00:04:13.999Z,88.90
2018-06-21T00:06:43.072Z,89.30
2018-06-21T00:09:12.011Z,89.80
2018-06-21T00:11:40.962Z,90.30
2018-06-21T00:14:10.135Z,90.10
2018-06-21T00:16:39.194Z,90.90
2018-06-21T00:19:08.201Z,91.30
2018-06-21T00:21:37.134Z,91.80
2018-06-21T00:24:06.127Z,92.90
2018-06-21T00:26:35.031Z,93.30
2018-06-21T00:29:03.948Z,93.40
2018-06-21T00:31:32.871Z,92.90
2018-06-21T00:34:01.825Z,91.80
2018-06-21T00:36:30.824Z,92.90
2018-06-21T00:38:59.748Z,93.60
2018-06-21T00:41:28.750Z,92.70
2018-06-21T00:43:57.651Z,92.90
2018-06-21T00:46:26.558Z,92.60
2018-06-21T00:48:55.604Z,93.10
2018-06-21T00:51:24.590Z,94.00
2018-06-21T00:53:53.484Z,93.90
2018-06-21T00:56:22.409Z,92.90
2018-06-21T00:58:51.354Z,94.50
2018-06-21T01:01:20.810Z,94.10
2018-06-21T01:03:49.720Z,94.90
2018-06-21T01:06:18.638Z,95.10
2018-06-21T01:08:47.974Z,95.20
2018-06-21T01:11:16.905Z,95.60
2018-06-21T01:13:46.332Z,95.90
2018-06-21T01:16:15.458Z,96.50
2018-06-21T01:18:44.412Z,96.30
2018-06-21T01:21:13.320Z,96.30
2018-06-21T01:23:42.243Z,96.40
2018-06-21T01:26:11.134Z,96.20
2018-06-21T01:28:40.083Z,96.10
2018-06-21T01:31:09.046Z,96.30
2018-06-21T01:33:37.987Z,96.40
2018-06-21T01:36:06.934Z,97.70
2018-06-21T01:38:36.091Z,97.50
2018-06-21T01:41:05.118Z,98.10
2018-06-21T01:43:34.066Z,98.50
2018-06-21T01:46:03.018Z,99.00
2018-06-21T01:48:31.930Z,98.90
2018-06-21T01:51:00.910Z,98.40
2018-06-21T01:53:29.845Z,99.40
2018-06-21T01:55:58.835Z,99.30
2018-06-21T01:58:27.810Z,99.90
2018-06-21T02:00:56.702Z,99.90
2018-06-21T02:03:25.619Z,99.80
2018-06-21T02:05:54.615Z,99.90
2018-06-21T02:08:23.552Z,99.90
2018-06-21T02:10:52.506Z,99.90
2018-06-21T02:13:21.418Z,99.90
2018-06-21T02:15:50.305Z,99.90
2018-06-21T02:18:19.218Z,99.90
2018-06-21T02:20:48.146Z,99.90
2018-06-21T02:23:17.041Z,99.90
2018-06-21T02:25:45.999Z,99.90
2018-06-21T02:28:14.925Z,99.90
2018-06-21T02:30:43.838Z,99.90
2018-06-21T02:33:12.746Z,99.90
2018-06-21T02:35:41.666Z,99.90
2018-06-21T02:38:10.570Z,99.90
2018-06-21T02:43:09.257Z,99.90
2018-06-21T02:45:38.246Z,99.90
2018-06-21T02:48:07.146Z,99.90
2018-06-21T02:50:36.040Z,99.90
2018-06-21T02:53:04.966Z,99.90
2018-06-21T02:55:33.907Z,99.90
2018-06-21T02:58:03.155Z,99.90
2018-06-21T03:00:32.152Z,99.90
2018-06-21T03:03:01.076Z,99.90
2018-06-21T03:05:29.971Z,99.90
2018-06-21T03:07:58.898Z,99.90
2018-06-21T03:10:28.246Z,99.90
2018-06-21T03:12:57.210Z,99.90
2018-06-21T03:15:26.614Z,99.90
2018-06-21T03:17:55.586Z,99.90
2018-06-21T03:20:24.517Z,99.90
2018-06-21T03:22:53.611Z,98.70
2018-06-21T03:25:22.535Z,94.10
2018-06-21T03:30:20.050Z,76.50
2018-06-21T03:32:48.931Z,68.20
2018-06-21T03:35:17.890Z,60.40
2018-06-21T03:37:46.815Z,56.50
2018-06-21T03:40:15.744Z,55.30
2018-06-21T03:42:44.696Z,51.50
2018-06-21T03:45:13.716Z,49.50
2018-06-21T03:47:42.659Z,49.20
2018-06-21T03:50:11.591Z,49.70
2018-06-21T03:52:40.467Z,49.20
2018-06-21T03:55:09.419Z,48.90
2018-06-21T03:57:38.353Z,49.00
2018-06-21T04:00:07.584Z,48.30
2018-06-21T04:02:36.531Z,47.10
2018-06-21T04:05:05.627Z,44.80
2018-06-21T04:07:34.566Z,44.30
2018-06-21T04:10:03.464Z,44.20
2018-06-21T04:12:32.382Z,42.90
2018-06-21T04:15:01.304Z,42.30
2018-06-21T04:17:30.784Z,42.80
2018-06-21T04:20:00.152Z,44.00
2018-06-21T04:22:29.156Z,44.50
2018-06-21T04:24:58.060Z,45.80
2018-06-21T04:27:26.964Z,46.40
2018-06-21T04:29:56.037Z,47.40
2018-06-21T04:32:24.990Z,49.40
2018-06-21T04:34:53.948Z,49.10
2018-06-21T04:37:22.927Z,49.10
2018-06-21T04:39:51.844Z,49.30
2018-06-21T04:42:20.835Z,48.20
2018-06-21T04:44:49.770Z,46.90
2018-06-21T04:47:18.689Z,46.30
2018-06-21T04:49:47.669Z,46.10
2018-06-21T04:52:16.578Z,45.70
2018-06-21T04:54:45.533Z,45.40
2018-06-21T04:57:14.482Z,45.10
2018-06-21T04:59:44.030Z,43.90
2018-06-21T05:02:12.967Z,43.10
2018-06-21T05:04:41.916Z,42.40
2018-06-21T05:07:11.394Z,41.40
2018-06-21T05:09:40.358Z,40.50
2018-06-21T05:12:09.391Z,39.50
2018-06-21T05:14:38.859Z,39.70
2018-06-21T05:17:07.814Z,38.40
2018-06-21T05:19:36.703Z,38.30
2018-06-21T05:22:05.642Z,36.70
2018-06-21T05:24:35.141Z,35.80
2018-06-21T05:27:04.134Z,34.30
2018-06-21T05:29:33.119Z,33.10
2018-06-21T05:32:02.103Z,33.10
2018-06-21T05:34:31.013Z,31.80
2018-06-21T05:37:00.048Z,30.00
2018-06-21T05:39:29.016Z,28.70
2018-06-21T05:41:58.370Z,27.40
2018-06-21T05:44:27.329Z,26.70
2018-06-21T05:46:56.551Z,24.80
2018-06-21T05:49:25.993Z,23.60
2018-06-21T05:51:54.948Z,22.30
2018-06-21T05:54:23.879Z,21.60
2018-06-21T05:56:52.798Z,19.20
2018-06-21T05:59:21.850Z,17.10
2018-06-21T06:01:50.811Z,15.20
2018-06-21T06:04:19.728Z,14.40
2018-06-21T06:06:48.831Z,13.80
2018-06-21T06:09:18.028Z,12.90
2018-06-21T06:11:47.207Z,12.70
2018-06-21T06:14:16.354Z,12.00
2018-06-21T06:16:45.818Z,10.80
2018-06-21T06:19:14.985Z,10.20
2018-06-21T06:21:44.429Z,9.40
2018-06-21T06:26:42.267Z,8.80
2018-06-21T06:29:11.402Z,9.00
2018-06-21T06:31:41.148Z,8.60
2018-06-21T06:34:10.244Z,7.80
2018-06-21T06:36:39.644Z,7.40
2018-06-21T06:39:16.135Z,6.90
2018-06-21T06:41:46.416Z,6.50
2018-06-21T06:44:15.500Z,5.80
2018-06-21T06:46:44.663Z,5.60
2018-06-21T06:49:13.973Z,5.30
2018-06-21T06:51:43.113Z,5.30
2018-06-21T06:54:12.957Z,4.50
2018-06-21T06:56:42.383Z,4.10
2018-06-21T06:59:11.546Z,4.80
2018-06-21T07:01:40.690Z,5.20
2018-06-21T07:06:39.085Z,4.10
2018-06-21T07:11:37.640Z,4.50
2018-06-21T07:14:07.272Z,4.80
2018-06-21T07:16:36.444Z,4.40
2018-06-21T07:19:06.028Z,3.70
2018-06-21T07:21:38.311Z,3.40
2018-06-21T07:24:07.596Z,4.10
2018-06-21T07:26:37.436Z,3.50
2018-06-21T07:29:06.776Z,3.40
2018-06-21T07:31:35.978Z,3.70
2018-06-21T07:34:05.459Z,3.70
2018-06-21T07:36:34.659Z,3.40
2018-06-21T07:39:04.011Z,3.20
2018-06-21T07:41:33.712Z,3.20
2018-06-21T07:44:03.306Z,2.30
2018-06-21T07:46:32.769Z,1.90
2018-06-21T07:49:01.793Z,1.30
2018-06-21T07:51:31.105Z,1.00
2018-06-21T07:54:00.387Z,1.00
2018-06-21T07:56:30.038Z,1.30
2018-06-21T07:58:59.258Z,1.10
2018-06-21T08:01:28.391Z,1.10
2018-06-21T08:03:57.386Z,1.20
2018-06-21T08:06:26.536Z,1.10
2018-06-21T08:08:55.731Z,1.00
2018-06-21T08:11:24.654Z,1.00
2018-06-21T08:13:53.599Z,1.00
2018-06-21T08:16:22.498Z,1.00
2018-06-21T08:18:51.431Z,1.00
2018-06-21T08:21:20.524Z,1.10
2018-06-21T08:23:49.774Z,1.00
2018-06-21T08:26:18.978Z,1.00
2018-06-21T08:28:48.070Z,1.00
2018-06-21T08:31:17.028Z,1.20
2018-06-21T08:33:45.921Z,1.00
2018-06-21T08:36:14.923Z,1.00
2018-06-21T08:38:44.036Z,1.00
2018-06-21T08:41:13.266Z,1.00
2018-06-21T08:43:42.402Z,1.00
2018-06-21T08:46:11.333Z,1.00
2018-06-21T08:48:40.776Z,1.00
2018-06-21T08:51:09.941Z,1.90
2018-06-21T08:53:39.658Z,3.40
2018-06-21T08:56:08.863Z,4.20
2018-06-21T08:58:37.972Z,5.10
2018-06-21T09:01:07.255Z,4.80
2018-06-21T09:03:36.382Z,5.60
2018-06-21T09:06:05.577Z,7.50
2018-06-21T09:08:35.097Z,7.30
2018-06-21T09:11:04.343Z,8.10
2018-06-21T09:13:36.154Z,8.60
2018-06-21T09:16:06.751Z,7.90
2018-06-21T09:18:35.851Z,7.10
2018-06-21T09:21:05.104Z,5.30
2018-06-21T09:23:34.275Z,6.80
2018-06-21T09:26:03.682Z,7.80
2018-06-21T09:28:32.624Z,9.00
2018-06-21T09:31:02.020Z,9.90
2018-06-21T09:33:31.041Z,10.90
2018-06-21T09:35:59.963Z,11.70
2018-06-21T09:38:34.219Z,12.70
2018-06-21T09:41:08.359Z,13.60
2018-06-21T09:43:50.301Z,13.40
2018-06-21T09:46:16.723Z,13.90
2018-06-21T09:48:50.439Z,14.00
2018-06-21T09:51:19.442Z,14.40
2018-06-21T09:53:48.549Z,14.80
2018-06-21T09:56:17.484Z,15.00
2018-06-21T09:58:46.406Z,15.20
2018-06-21T10:03:43.902Z,14.90
2018-06-21T10:06:12.850Z,14.90
2018-06-21T10:08:41.742Z,15.00
2018-06-21T10:11:25.215Z,15.10
2018-06-21T10:13:54.127Z,15.00
2018-06-21T10:16:23.079Z,14.10
2018-06-21T10:18:52.031Z,14.10
2018-06-21T10:21:21.068Z,13.70
2018-06-21T10:23:50.015Z,13.80
2018-06-21T10:26:18.970Z,14.40
2018-06-21T10:28:47.917Z,14.20
2018-06-21T10:31:16.834Z,14.10
2018-06-21T10:33:45.996Z,14.60
2018-06-21T10:36:14.954Z,14.70
2018-06-21T10:38:43.995Z,14.40
2018-06-21T10:41:12.985Z,14.20
2018-06-21T10:43:41.967Z,14.10
2018-06-21T10:46:10.920Z,14.20
2018-06-21T10:48:39.865Z,14.80
2018-06-21T10:51:08.753Z,14.20
2018-06-21T10:53:37.631Z,14.10
2018-06-21T10:56:06.690Z,13.70
2018-06-21T10:58:35.661Z,14.20
2018-06-21T11:01:04.655Z,14.10
2018-06-21T11:03:33.544Z,14.90
2018-06-21T11:06:02.506Z,15.00
2018-06-21T11:08:31.446Z,15.20
2018-06-21T11:11:00.414Z,14.60
2018-06-21T11:13:29.357Z,14.90
2018-06-21T11:15:58.309Z,15.20
2018-06-21T11:18:27.175Z,15.10
2018-06-21T11:20:56.129Z,15.10
2018-06-21T11:23:25.027Z,15.00
2018-06-21T11:25:53.942Z,15.00
2018-06-21T11:28:22.862Z,14.90
2018-06-21T11:30:51.783Z,15.00
2018-06-21T11:33:21.309Z,14.80
2018-06-21T11:35:50.789Z,14.80
2018-06-21T11:38:19.711Z,14.50
2018-06-21T11:40:48.613Z,14.70
2018-06-21T11:43:17.535Z,14.80
2018-06-21T11:45:46.487Z,15.10
2018-06-21T11:48:15.449Z,14.90
2018-06-21T11:50:44.862Z,14.40
2018-06-21T11:53:13.840Z,14.60
2018-06-21T11:55:42.725Z,14.90
2018-06-21T11:58:11.644Z,14.90
2018-06-21T12:00:40.613Z,15.10
2018-06-21T12:03:09.623Z,14.90
2018-06-21T12:05:38.608Z,15.90
2018-06-21T12:08:07.589Z,15.40
2018-06-21T12:10:36.515Z,15.50
2018-06-21T12:13:05.395Z,15.60
2018-06-21T12:15:35.086Z,15.40
2018-06-21T12:18:04.011Z,15.30
2018-06-21T12:20:33.477Z,14.60
2018-06-21T12:23:02.376Z,14.50
2018-06-21T12:25:31.321Z,14.60
2018-06-21T12:28:00.195Z,15.00
2018-06-21T12:30:29.131Z,15.20
2018-06-21T12:32:58.035Z,15.60
2018-06-21T12:35:26.967Z,15.80
2018-06-21T12:37:55.923Z,16.10
2018-06-21T12:40:24.874Z,15.80
2018-06-21T12:42:53.920Z,15.30
2018-06-21T12:45:22.955Z,14.80
2018-06-21T12:47:51.935Z,14.70
2018-06-21T12:50:20.855Z,14.90
2018-06-21T12:52:50.313Z,15.00
2018-06-21T12:55:19.476Z,14.90
2018-06-21T12:57:48.490Z,15.40
2018-06-21T13:00:17.552Z,15.30
2018-06-21T13:02:46.488Z,15.00
2018-06-21T13:05:15.444Z,15.20
2018-06-21T13:07:44.339Z,15.30
2018-06-21T13:10:24.453Z,16.00
2018-06-21T13:13:09.410Z,15.60
2018-06-21T13:15:38.327Z,15.30
2018-06-21T13:18:07.252Z,15.20
2018-06-21T13:20:36.211Z,15.30
2018-06-21T13:23:05.236Z,15.50
2018-06-21T13:25:34.533Z,15.90
2018-06-21T13:28:03.496Z,15.80
2018-06-21T13:30:32.371Z,16.00
2018-06-21T13:33:01.288Z,16.30
2018-06-21T13:35:30.251Z,16.30
2018-06-21T13:37:59.285Z,16.40
2018-06-21T13:40:28.273Z,16.90
2018-06-21T13:42:57.721Z,17.00
2018-06-21T13:45:26.778Z,17.20
2018-06-21T13:47:55.781Z,17.30
2018-06-21T13:50:24.739Z,17.30
2018-06-21T13:52:53.735Z,17.20
2018-06-21T13:55:22.677Z,17.40
2018-06-21T13:57:51.594Z,17.90
2018-06-21T14:00:20.565Z,20.10
2018-06-21T14:02:49.509Z,24.10
2018-06-21T14:05:18.454Z,27.60
2018-06-21T14:07:47.479Z,31.70
2018-06-21T14:10:16.343Z,74.60
2018-06-21T14:12:45.332Z,91.40
2018-06-21T14:15:14.269Z,99.90
2018-06-21T14:17:43.174Z,99.90
2018-06-21T14:20:12.135Z,99.90
2018-06-21T14:22:41.019Z,99.90
2018-06-21T14:25:09.923Z,99.90
2018-06-21T14:27:38.846Z,99.90
2018-06-21T14:30:07.811Z,99.90
2018-06-21T14:32:36.781Z,99.90
2018-06-21T14:35:05.704Z,99.90
2018-06-21T14:37:34.851Z,99.90
2018-06-21T14:40:04.026Z,99.90
2018-06-21T14:42:32.998Z,99.90
2018-06-21T14:45:02.087Z,99.90
2018-06-21T14:47:31.152Z,99.90
2018-06-21T14:50:00.629Z,99.90
2018-06-21T14:52:29.656Z,99.90
2018-06-21T14:54:58.612Z,99.90
2018-06-21T14:57:27.530Z,99.90
2018-06-21T14:59:56.486Z,99.90
2018-06-21T15:02:25.394Z,99.90
2018-06-21T15:04:54.345Z,99.90
2018-06-21T15:07:23.862Z,99.90
2018-06-21T15:09:52.787Z,99.90
2018-06-21T15:12:21.667Z,99.90
2018-06-21T15:14:50.594Z,99.90
2018-06-21T15:17:20.754Z,99.90
2018-06-21T15:19:49.773Z,99.90
2018-06-21T15:22:18.906Z,99.90
2018-06-21T15:24:48.143Z,99.90
2018-06-21T15:27:17.086Z,99.90
2018-06-21T15:29:45.974Z,99.90
2018-06-21T15:32:14.891Z,99.90
2018-06-21T15:34:59.098Z,99.90
2018-06-21T15:37:29.059Z,99.90
2018-06-21T15:39:58.006Z,99.90
2018-06-21T15:42:26.968Z,99.90
2018-06-21T15:44:55.898Z,99.90
2018-06-21T15:47:24.941Z,99.90
2018-06-21T15:49:54.947Z,99.90
2018-06-21T15:52:23.935Z,99.90
2018-06-21T15:54:52.862Z,99.90
2018-06-21T15:57:21.867Z,99.90
2018-06-21T15:59:50.783Z,99.90
2018-06-21T16:02:19.782Z,99.90
2018-06-21T16:04:48.773Z,99.90
2018-06-21T16:07:18.262Z,99.90
2018-06-21T16:09:47.226Z,99.90
2018-06-21T16:14:45.211Z,77.10
2018-06-21T16:17:14.155Z,72.10
2018-06-21T16:19:43.086Z,64.70
2018-06-21T16:22:12.420Z,64.30
2018-06-21T16:24:41.548Z,67.50
2018-06-21T16:27:10.547Z,67.20
2018-06-21T16:29:39.474Z,66.20
2018-06-21T16:32:08.402Z,60.80
2018-06-21T16:34:37.330Z,66.10
2018-06-21T16:37:06.966Z,59.30
2018-06-21T16:39:36.245Z,61.00
2018-06-21T16:44:33.827Z,57.90
2018-06-21T16:47:02.866Z,57.70
2018-06-21T16:49:31.799Z,57.00
2018-06-21T16:52:01.303Z,55.60
2018-06-21T16:54:30.313Z,49.60
2018-06-21T16:56:59.349Z,53.10
2018-06-21T16:59:28.312Z,52.50
2018-06-21T17:01:57.326Z,52.50
2018-06-21T17:04:26.535Z,51.20
2018-06-21T17:06:55.799Z,52.40
2018-06-21T17:09:24.735Z,50.20
2018-06-21T17:11:53.658Z,47.50
2018-06-21T17:14:22.600Z,48.90
2018-06-21T17:16:51.517Z,48.30
2018-06-21T17:19:20.452Z,45.50
2018-06-21T17:21:49.604Z,46.80
2018-06-21T17:24:18.518Z,44.50
2018-06-21T17:26:47.408Z,44.20
2018-06-21T17:29:16.365Z,46.10
2018-06-21T17:31:45.311Z,45.50
2018-06-21T17:34:14.203Z,47.70
2018-06-21T17:36:43.228Z,45.80
2018-06-21T17:39:12.294Z,44.50
2018-06-21T17:41:41.216Z,45.40
2018-06-21T17:46:38.744Z,45.70
2018-06-21T17:49:07.750Z,42.60
2018-06-21T17:51:36.745Z,42.90
2018-06-21T17:54:05.811Z,44.10
2018-06-21T17:56:34.925Z,45.70
2018-06-21T17:59:03.841Z,45.80
2018-06-21T18:01:33.656Z,46.20
2018-06-21T18:04:03.072Z,47.00
2018-06-21T18:06:31.995Z,48.00
2018-06-21T18:09:00.947Z,49.50
2018-06-21T18:11:30.031Z,50.60
2018-06-21T18:13:58.970Z,48.50
2018-06-21T18:16:28.009Z,50.70
2018-06-21T18:21:27.452Z,50.90
2018-06-21T18:23:56.783Z,49.00
2018-06-21T18:26:25.763Z,47.50
2018-06-21T18:28:54.713Z,47.20
2018-06-21T18:31:23.654Z,44.60
2018-06-21T18:33:52.624Z,46.00
2018-06-21T18:36:21.563Z,43.30
2018-06-21T18:38:50.498Z,42.60
2018-06-21T18:41:20.012Z,41.30
2018-06-21T18:43:48.970Z,41.60
2018-06-21T18:46:18.068Z,43.40
2018-06-21T18:48:47.042Z,41.50
2018-06-21T18:51:15.999Z,44.30
2018-06-21T18:53:44.903Z,44.60
2018-06-21T18:56:13.841Z,45.70
2018-06-21T18:58:42.717Z,48.80
2018-06-21T19:01:11.968Z,44.80
2018-06-21T19:03:40.940Z,43.70
2018-06-21T19:06:15.137Z,41.10
2018-06-21T19:08:49.326Z,39.80
2018-06-21T19:11:23.459Z,40.20
2018-06-21T19:13:52.426Z,41.70
2018-06-21T19:16:21.342Z,41.90
2018-06-21T19:18:50.372Z,39.50
2018-06-21T19:21:19.344Z,42.10
2018-06-21T19:24:09.462Z,42.90
2018-06-21T19:26:38.458Z,41.60
2018-06-21T19:29:07.387Z,43.80
2018-06-21T19:31:36.341Z,41.90
2018-06-21T19:34:05.651Z,42.30
2018-06-21T19:36:34.640Z,42.10
2018-06-21T19:39:03.717Z,43.10
2018-06-21T19:41:32.670Z,43.30
2018-06-21T19:44:04.125Z,44.30
2018-06-21T19:46:34.907Z,45.20
2018-06-21T19:49:05.236Z,46.10
2018-06-21T19:51:34.222Z,46.30
2018-06-21T19:54:03.656Z,48.70
2018-06-21T19:56:33.553Z,47.00
2018-06-21T19:59:02.482Z,46.60
2018-06-21T20:01:31.501Z,48.50
2018-06-21T20:04:00.396Z,47.80
2018-06-21T20:06:29.330Z,48.40
2018-06-21T20:08:58.308Z,49.50
2018-06-21T20:11:32.451Z,49.60
2018-06-21T20:14:01.570Z,50.00
2018-06-21T20:16:30.907Z,50.10
2018-06-21T20:19:07.284Z,51.30
2018-06-21T20:21:36.759Z,53.60
2018-06-21T20:24:05.753Z,54.60
2018-06-21T20:26:34.643Z,54.80
2018-06-21T20:29:03.694Z,55.60
2018-06-21T20:31:32.960Z,57.70
2018-06-21T20:34:02.726Z,58.20
2018-06-21T20:36:32.130Z,57.30
2018-06-21T20:39:01.062Z,57.90
2018-06-21T20:41:29.992Z,58.90
2018-06-21T20:43:59.455Z,59.20
2018-06-21T20:46:28.415Z,59.80
2018-06-21T20:48:57.359Z,60.80
2018-06-21T20:51:26.285Z,62.90
2018-06-21T20:53:55.407Z,63.60
2018-06-21T20:56:24.595Z,62.90
2018-06-21T20:58:53.699Z,66.10
2018-06-21T21:01:23.944Z,65.20
2018-06-21T21:03:53.327Z,65.70
2018-06-21T21:06:22.258Z,67.60
2018-06-21T21:08:51.774Z,67.50
2018-06-21T21:11:20.653Z,67.80
2018-06-21T21:13:49.583Z,69.80
2018-06-21T21:16:18.487Z,71.70
2018-06-21T21:18:47.379Z,70.20
2018-06-21T21:21:16.415Z,72.70
2018-06-21T21:23:51.218Z,73.80
2018-06-21T21:26:20.138Z,75.30
2018-06-21T21:28:49.138Z,75.60
2018-06-21T21:31:17.980Z,77.30
2018-06-21T21:33:47.488Z,80.60
2018-06-21T21:36:16.388Z,79.70
2018-06-21T21:38:45.874Z,81.50
2018-06-21T21:41:14.763Z,83.60
2018-06-21T21:43:43.666Z,88.00
2018-06-21T21:46:12.586Z,89.90
2018-06-21T21:48:41.547Z,90.80
2018-06-21T21:51:10.463Z,91.70
2018-06-21T21:53:39.380Z,90.70
2018-06-21T21:56:09.446Z,89.50
2018-06-21T21:58:38.676Z,85.70
2018-06-21T22:01:07.599Z,88.10
2018-06-21T22:03:36.475Z,85.60
2018-06-21T22:06:05.399Z,84.60
2018-06-21T22:08:34.961Z,83.90
2018-06-21T22:11:04.387Z,82.80
2018-06-21T22:13:33.346Z,85.80
2018-06-21T22:16:02.340Z,79.70
2018-06-21T22:18:31.279Z,80.60
2018-06-21T22:21:00.175Z,77.00
2018-06-21T22:23:29.577Z,75.50
2018-06-21T22:25:58.455Z,70.20
2018-06-21T22:28:27.662Z,69.50
2018-06-21T22:30:56.799Z,67.50
2018-06-21T22:33:26.005Z,66.50
2018-06-21T22:35:55.573Z,67.20
2018-06-21T22:38:24.552Z,65.60
2018-06-21T22:40:53.466Z,64.90
2018-06-21T22:43:22.326Z,64.40
2018-06-21T22:45:51.270Z,62.90
2018-06-21T22:48:21.162Z,64.40
2018-06-21T22:50:50.071Z,63.30
2018-06-21T22:53:18.957Z,63.40
2018-06-21T22:55:48.237Z,62.70
2018-06-21T22:58:17.181Z,64.10
2018-06-21T23:00:46.079Z,62.80
2018-06-21T23:03:14.948Z,62.60
2018-06-21T23:05:43.999Z,62.90
2018-06-21T23:08:14.207Z,63.90
2018-06-21T23:10:43.416Z,62.20
2018-06-21T23:13:12.381Z,62.60
2018-06-21T23:15:41.559Z,62.40
2018-06-21T23:18:10.554Z,62.50
2018-06-21T23:20:39.442Z,64.10
2018-06-21T23:23:08.382Z,63.40
2018-06-21T23:25:37.251Z,63.10
2018-06-21T23:28:06.360Z,62.40
2018-06-21T23:30:35.238Z,62.80
2018-06-21T23:33:04.163Z,63.10
2018-06-21T23:35:33.054Z,63.20
2018-06-21T23:38:01.951Z,63.80
2018-06-21T23:40:30.886Z,64.00
2018-06-21T23:42:59.759Z,63.60
2018-06-21T23:45:28.683Z,65.40
2018-06-21T23:47:57.579Z,65.60
2018-06-21T23:50:26.523Z,64.60
2018-06-21T23:52:56.112Z,66.00
2018-06-21T23:55:25.383Z,65.30
2018-06-21T23:57:54.279Z,66.60
